createdAt,value
2022-10-26T00:01:14.644Z,10.67
2022-10-26T00:03:44.297Z,10.67
2022-10-26T00:06:17.112Z,10.61
2022-10-26T00:08:45.455Z,10.50
2022-10-26T00:11:13.640Z,10.39
2022-10-26T00:13:41.729Z,10.34
2022-10-26T00:16:22.831Z,10.28
2022-10-26T00:18:51.177Z,10.21
2022-10-26T00:21:19.070Z,10.15
2022-10-26T00:23:46.787Z,10.10
2022-10-26T00:26:14.668Z,10.02
2022-10-26T00:28:42.512Z,9.94
2022-10-26T00:31:15.751Z,9.89
2022-10-26T00:33:43.501Z,9.80
2022-10-26T00:36:13.984Z,9.73
2022-10-26T00:38:46.321Z,9.68
2022-10-26T00:41:15.817Z,9.66
2022-10-26T00:43:43.587Z,9.65
2022-10-26T00:46:17.149Z,9.64
2022-10-26T00:48:50.150Z,9.65
2022-10-26T00:51:27.621Z,9.65
2022-10-26T00:53:56.231Z,9.66
2022-10-26T00:56:24.374Z,9.66
2022-10-26T00:58:52.753Z,9.66
2022-10-26T01:01:20.704Z,9.64
2022-10-26T01:03:49.489Z,9.61
2022-10-26T01:06:17.323Z,9.59
2022-10-26T01:08:45.447Z,9.57
2022-10-26T01:11:13.479Z,9.52
2022-10-26T01:13:44.441Z,9.45
2022-10-26T01:16:35.096Z,9.39
2022-10-26T01:19:36.906Z,9.35
2022-10-26T01:22:07.607Z,9.31
2022-10-26T01:24:49.522Z,9.28
2022-10-26T01:27:40.703Z,9.27
2022-10-26T01:30:19.708Z,9.25
2022-10-26T01:33:17.184Z,9.25
2022-10-26T01:35:50.140Z,9.27
2022-10-26T01:38:24.053Z,9.31
2022-10-26T01:41:02.853Z,9.35
2022-10-26T01:43:34.315Z,9.40
2022-10-26T01:46:05.712Z,9.41
2022-10-26T01:48:34.514Z,9.43
2022-10-26T01:51:04.882Z,9.45
2022-10-26T01:53:32.565Z,9.44
2022-10-26T01:56:02.168Z,9.43
2022-10-26T01:58:44.734Z,9.42
2022-10-26T02:01:18.742Z,9.39
2022-10-26T02:03:54.191Z,9.35
2022-10-26T02:06:35.372Z,9.31
2022-10-26T02:09:24.596Z,9.28
2022-10-26T02:11:54.492Z,9.24
2022-10-26T02:14:45.433Z,9.21
2022-10-26T02:17:36.468Z,9.18
2022-10-26T02:20:08.376Z,9.14
2022-10-26T02:22:47.482Z,9.12
2022-10-26T02:25:27.721Z,9.10
2022-10-26T02:28:00.434Z,9.09
2022-10-26T02:30:28.932Z,9.06
2022-10-26T02:32:58.400Z,9.04
2022-10-26T02:35:32.121Z,9.00
2022-10-26T02:38:03.160Z,8.96
2022-10-26T02:40:32.638Z,8.93
2022-10-26T02:43:13.919Z,8.90
2022-10-26T02:45:46.755Z,8.86
2022-10-26T02:48:15.452Z,8.86
2022-10-26T02:51:12.514Z,8.83
2022-10-26T02:53:50.259Z,8.80
2022-10-26T02:56:22.266Z,8.77
2022-10-26T02:58:54.595Z,8.70
2022-10-26T03:01:22.437Z,8.61
2022-10-26T03:03:50.341Z,8.55
2022-10-26T03:06:23.236Z,8.53
2022-10-26T03:08:51.659Z,8.50
2022-10-26T03:11:19.502Z,8.49
2022-10-26T03:13:47.243Z,8.48
2022-10-26T03:16:15.012Z,8.48
2022-10-26T03:18:42.778Z,8.43
2022-10-26T03:21:10.701Z,8.41
2022-10-26T03:23:38.580Z,8.42
2022-10-26T03:26:06.292Z,8.43
2022-10-26T03:28:34.147Z,8.44
2022-10-26T03:31:01.952Z,8.39
2022-10-26T03:33:29.871Z,8.36
2022-10-26T03:35:57.731Z,8.36
2022-10-26T03:38:25.528Z,8.37
2022-10-26T03:40:53.348Z,8.35
2022-10-26T03:43:21.191Z,8.33
2022-10-26T03:45:49.030Z,8.28
2022-10-26T03:48:16.834Z,8.24
2022-10-26T03:50:44.603Z,8.19
2022-10-26T03:53:12.338Z,8.16
2022-10-26T03:55:40.047Z,8.14
2022-10-26T03:58:07.740Z,8.11
2022-10-26T04:00:35.562Z,8.08
2022-10-26T04:03:03.308Z,8.04
2022-10-26T04:05:31.089Z,8.02
2022-10-26T04:08:01.635Z,8.02
2022-10-26T04:10:30.215Z,8.02
2022-10-26T04:13:00.297Z,8.03
2022-10-26T04:15:28.886Z,8.03
2022-10-26T04:17:58.271Z,8.03
2022-10-26T04:20:27.377Z,8.02
2022-10-26T04:23:04.133Z,8.00
2022-10-26T04:25:33.746Z,7.97
2022-10-26T04:28:04.114Z,7.98
2022-10-26T04:30:33.421Z,8.01
2022-10-26T04:33:01.599Z,8.02
2022-10-26T04:35:29.995Z,8.04
2022-10-26T04:38:02.652Z,8.06
2022-10-26T04:40:31.573Z,8.04
2022-10-26T04:42:59.888Z,8.04
2022-10-26T04:45:31.309Z,8.05
2022-10-26T04:48:06.290Z,8.05
2022-10-26T04:50:35.004Z,8.09
2022-10-26T04:53:03.767Z,8.11
2022-10-26T04:55:31.673Z,8.12
2022-10-26T04:58:01.377Z,8.12
2022-10-26T05:00:32.775Z,8.11
2022-10-26T05:03:02.242Z,8.11
2022-10-26T05:05:32.181Z,8.13
2022-10-26T05:07:59.999Z,8.14
2022-10-26T05:10:28.266Z,8.13
2022-10-26T05:12:58.239Z,8.13
2022-10-26T05:15:27.027Z,8.11
2022-10-26T05:17:57.474Z,8.11
2022-10-26T05:20:29.915Z,8.13
2022-10-26T05:22:59.312Z,8.13
2022-10-26T05:25:28.595Z,8.13
2022-10-26T05:28:04.336Z,8.11
2022-10-26T05:30:32.173Z,8.08
2022-10-26T05:33:04.893Z,8.05
2022-10-26T05:35:32.897Z,8.05
2022-10-26T05:38:06.540Z,8.05
2022-10-26T05:40:34.532Z,8.07
2022-10-26T05:43:03.139Z,8.09
2022-10-26T05:45:30.885Z,8.13
2022-10-26T05:48:01.752Z,8.17
2022-10-26T05:50:31.032Z,8.23
2022-10-26T05:52:58.763Z,8.29
2022-10-26T05:55:26.900Z,8.38
2022-10-26T05:57:54.857Z,8.49
2022-10-26T06:00:25.632Z,8.59
2022-10-26T06:03:08.890Z,8.70
2022-10-26T06:05:52.470Z,8.83
2022-10-26T06:08:21.717Z,8.98
2022-10-26T06:10:50.453Z,9.10
2022-10-26T06:13:18.492Z,9.23
2022-10-26T06:16:25.138Z,9.35
2022-10-26T06:19:21.069Z,9.50
2022-10-26T06:22:04.255Z,9.64
2022-10-26T06:24:50.887Z,9.75
2022-10-26T06:27:40.416Z,9.89
2022-10-26T06:30:11.778Z,10.03
2022-10-26T06:32:43.893Z,10.19
2022-10-26T06:35:37.290Z,10.34
2022-10-26T06:38:13.501Z,10.50
2022-10-26T06:40:43.005Z,10.63
2022-10-26T06:43:25.315Z,10.75
2022-10-26T06:46:31.362Z,10.87
2022-10-26T06:49:22.402Z,11.02
2022-10-26T06:51:57.618Z,11.20
2022-10-26T06:54:54.661Z,11.33
2022-10-26T06:57:24.961Z,11.47
2022-10-26T06:59:56.816Z,11.63
2022-10-26T07:02:24.819Z,11.78
2022-10-26T07:04:52.682Z,11.91
2022-10-26T07:07:24.518Z,12.02
2022-10-26T07:09:52.593Z,12.17
2022-10-26T07:12:20.380Z,12.37
2022-10-26T07:14:48.330Z,12.50
2022-10-26T07:17:17.163Z,12.66
2022-10-26T07:19:45.054Z,12.82
2022-10-26T07:22:13.019Z,13.00
2022-10-26T07:24:41.019Z,13.12
2022-10-26T07:27:09.145Z,13.27
2022-10-26T07:29:36.848Z,13.35
2022-10-26T07:32:04.881Z,13.42
2022-10-26T07:34:32.555Z,13.53
2022-10-26T07:37:00.907Z,13.67
2022-10-26T07:39:28.787Z,13.78
2022-10-26T07:41:56.518Z,13.87
2022-10-26T07:44:24.227Z,13.97
2022-10-26T07:46:52.027Z,14.07
2022-10-26T07:49:19.989Z,14.16
2022-10-26T07:51:48.206Z,14.22
2022-10-26T07:54:15.905Z,14.26
2022-10-26T07:56:43.754Z,14.35
2022-10-26T07:59:13.311Z,14.43
2022-10-26T08:01:44.968Z,14.50
2022-10-26T08:04:12.752Z,14.63
2022-10-26T08:06:40.411Z,14.75
2022-10-26T08:09:08.141Z,14.89
2022-10-26T08:11:38.617Z,15.02
2022-10-26T08:14:10.106Z,15.17
2022-10-26T08:16:40.494Z,15.30
2022-10-26T08:19:08.204Z,15.45
2022-10-26T08:21:39.765Z,15.54
2022-10-26T08:24:08.744Z,15.65
2022-10-26T08:26:36.875Z,15.78
2022-10-26T08:29:04.918Z,15.92
2022-10-26T08:31:33.399Z,16.02
2022-10-26T08:34:01.990Z,16.11
2022-10-26T08:36:29.938Z,16.19
2022-10-26T08:38:57.630Z,16.26
2022-10-26T08:41:46.914Z,16.32
2022-10-26T08:44:27.579Z,16.37
2022-10-26T08:47:26.152Z,16.47
2022-10-26T08:50:13.669Z,16.56
2022-10-26T08:52:53.976Z,16.62
2022-10-26T08:55:29.070Z,16.66
2022-10-26T08:57:57.034Z,16.61
2022-10-26T09:00:27.307Z,16.55
2022-10-26T09:02:56.114Z,16.54
2022-10-26T09:05:36.046Z,16.59
2022-10-26T09:08:28.246Z,16.69
2022-10-26T09:11:05.105Z,16.76
2022-10-26T09:13:55.143Z,16.71
2022-10-26T09:17:11.691Z,16.77
2022-10-26T09:19:55.040Z,16.73
2022-10-26T09:22:42.011Z,16.77
2022-10-26T09:25:20.097Z,16.68
2022-10-26T09:27:57.455Z,16.61
2022-10-26T09:30:25.161Z,16.60
2022-10-26T09:32:59.050Z,16.64
2022-10-26T09:35:50.587Z,16.66
2022-10-26T09:38:36.829Z,16.68
2022-10-26T09:41:08.964Z,16.67
2022-10-26T09:44:03.378Z,16.65
2022-10-26T09:46:38.041Z,16.62
2022-10-26T09:49:08.291Z,16.60
2022-10-26T09:51:38.140Z,16.59
2022-10-26T09:54:15.148Z,16.61
2022-10-26T09:56:47.648Z,16.63
2022-10-26T09:59:16.300Z,16.66
2022-10-26T10:01:44.129Z,16.73
2022-10-26T10:04:17.837Z,16.79
2022-10-26T10:06:47.892Z,16.84
2022-10-26T10:09:21.156Z,16.89
2022-10-26T10:11:55.351Z,16.96
2022-10-26T10:14:27.838Z,17.06
2022-10-26T10:16:57.974Z,17.16
2022-10-26T10:19:30.211Z,17.20
2022-10-26T10:22:09.402Z,17.25
2022-10-26T10:24:40.331Z,17.31
2022-10-26T10:27:17.095Z,17.37
2022-10-26T10:29:47.731Z,17.45
2022-10-26T10:32:20.847Z,17.50
2022-10-26T10:34:53.219Z,17.52
2022-10-26T10:37:44.308Z,17.64
2022-10-26T10:40:22.166Z,17.68
2022-10-26T10:42:53.170Z,17.71
2022-10-26T10:45:27.597Z,17.79
2022-10-26T10:48:12.057Z,17.86
2022-10-26T10:51:02.178Z,17.89
2022-10-26T10:53:50.910Z,17.90
2022-10-26T10:56:27.761Z,17.89
2022-10-26T10:58:55.468Z,17.86
2022-10-26T11:01:29.103Z,17.89
2022-10-26T11:03:57.120Z,17.89
2022-10-26T11:06:28.986Z,17.84
2022-10-26T11:09:07.586Z,17.85
2022-10-26T11:11:45.580Z,17.87
2022-10-26T11:14:22.853Z,17.84
2022-10-26T11:16:57.058Z,17.82
2022-10-26T11:19:31.467Z,17.84
2022-10-26T11:21:59.183Z,17.83
2022-10-26T11:24:39.147Z,17.86
2022-10-26T11:27:26.088Z,17.84
2022-10-26T11:29:56.594Z,17.83
2022-10-26T11:32:47.769Z,17.81
2022-10-26T11:35:24.725Z,17.83
2022-10-26T11:38:20.754Z,17.81
2022-10-26T11:41:05.151Z,17.83
2022-10-26T11:43:41.968Z,17.85
2022-10-26T11:46:18.958Z,17.89
2022-10-26T11:48:50.306Z,17.93
2022-10-26T11:51:53.777Z,17.90
2022-10-26T11:54:29.155Z,17.84
2022-10-26T11:56:58.500Z,17.81
2022-10-26T11:59:33.555Z,17.85
2022-10-26T12:02:04.648Z,17.84
2022-10-26T12:04:36.932Z,17.81
2022-10-26T12:07:11.393Z,17.80
2022-10-26T12:09:42.520Z,17.73
2022-10-26T12:12:46.357Z,17.71
2022-10-26T12:18:56.828Z,17.75
2022-10-26T12:21:31.771Z,17.79
2022-10-26T12:24:02.322Z,17.78
2022-10-26T12:26:30.071Z,17.77
2022-10-26T12:29:03.833Z,17.82
2022-10-26T12:31:37.570Z,17.85
2022-10-26T12:34:10.264Z,17.87
2022-10-26T12:36:57.081Z,17.92
2022-10-26T12:39:25.376Z,17.87
2022-10-26T12:41:59.138Z,17.88
2022-10-26T12:44:45.813Z,17.84
2022-10-26T12:47:28.958Z,17.83
2022-10-26T12:50:05.891Z,17.84
2022-10-26T12:52:45.230Z,17.89
2022-10-26T12:55:12.948Z,17.84
2022-10-26T12:57:56.030Z,17.80
2022-10-26T13:00:26.149Z,17.75
2022-10-26T13:03:26.962Z,17.77
2022-10-26T13:06:06.841Z,17.82
2022-10-26T13:08:44.572Z,17.77
2022-10-26T13:11:32.444Z,17.73
2022-10-26T13:14:05.617Z,17.66
2022-10-26T13:16:34.314Z,17.58
2022-10-26T13:19:02.234Z,17.57
2022-10-26T13:21:30.139Z,17.51
2022-10-26T13:24:05.701Z,17.55
2022-10-26T13:27:16.901Z,17.60
2022-10-26T13:30:03.331Z,17.65
2022-10-26T13:32:52.171Z,17.64
2022-10-26T13:35:21.768Z,17.64
2022-10-26T13:37:53.099Z,17.55
2022-10-26T13:40:24.525Z,17.53
2022-10-26T13:42:58.478Z,17.53
2022-10-26T13:45:37.763Z,17.48
2022-10-26T13:48:12.599Z,17.47
2022-10-26T13:50:53.200Z,17.44
2022-10-26T13:53:41.788Z,17.40
2022-10-26T13:56:36.769Z,17.37
2022-10-26T13:59:13.528Z,17.30
2022-10-26T14:01:41.392Z,17.25
2022-10-26T14:04:18.125Z,17.23
2022-10-26T14:06:51.179Z,17.16
2022-10-26T14:09:20.684Z,17.06
2022-10-26T14:11:54.190Z,17.06
2022-10-26T14:14:25.709Z,16.98
2022-10-26T14:16:54.484Z,16.93
2022-10-26T14:19:22.156Z,16.83
2022-10-26T14:21:51.031Z,16.75
2022-10-26T14:24:40.676Z,16.65
2022-10-26T14:27:21.888Z,16.56
2022-10-26T14:30:23.088Z,16.43
2022-10-26T14:32:40.100Z,16.34
2022-10-26T14:35:13.299Z,16.25
2022-10-26T14:37:57.880Z,16.17
2022-10-26T14:40:30.260Z,16.08
2022-10-26T14:43:00.514Z,15.97
2022-10-26T14:45:49.251Z,15.84
2022-10-26T14:48:57.254Z,15.69
2022-10-26T14:51:36.761Z,15.50
2022-10-26T14:54:04.998Z,15.34
2022-10-26T14:56:35.774Z,15.18
2022-10-26T14:59:13.405Z,15.02
2022-10-26T15:02:10.410Z,14.86
2022-10-26T15:04:41.037Z,14.65
2022-10-26T15:07:11.954Z,14.48
2022-10-26T15:09:43.936Z,14.30
2022-10-26T15:12:35.315Z,14.12
2022-10-26T15:15:15.098Z,13.94
2022-10-26T15:17:51.547Z,13.75
2022-10-26T15:20:27.983Z,13.59
2022-10-26T15:23:01.307Z,13.43
2022-10-26T15:25:35.129Z,13.28
2022-10-26T15:28:10.519Z,13.12
2022-10-26T15:30:38.187Z,12.98
2022-10-26T15:33:22.086Z,12.85
2022-10-26T15:35:50.025Z,12.73
2022-10-26T15:38:17.720Z,12.64
2022-10-26T15:40:45.493Z,12.55
2022-10-26T15:43:13.283Z,12.49
2022-10-26T15:45:52.160Z,12.43
2022-10-26T15:48:29.211Z,12.36
2022-10-26T15:50:57.206Z,12.28
2022-10-26T15:53:30.599Z,12.21
2022-10-26T15:55:59.919Z,12.12
2022-10-26T15:58:31.304Z,12.03
2022-10-26T16:00:59.160Z,11.95
2022-10-26T16:03:27.388Z,11.90
2022-10-26T16:06:00.947Z,11.83
2022-10-26T16:08:31.629Z,11.79
2022-10-26T16:10:59.823Z,11.74
2022-10-26T16:13:27.808Z,11.69
2022-10-26T16:15:55.794Z,11.62
2022-10-26T16:18:23.511Z,11.55
2022-10-26T16:20:51.167Z,11.46
2022-10-26T16:23:18.808Z,11.36
2022-10-26T16:25:47.293Z,11.26
2022-10-26T16:28:17.044Z,11.17
2022-10-26T16:30:44.930Z,11.08
2022-10-26T16:33:12.837Z,11.00
2022-10-26T16:35:40.865Z,10.93
2022-10-26T16:38:08.562Z,10.86
2022-10-26T16:40:36.327Z,10.80
2022-10-26T16:43:04.040Z,10.75
2022-10-26T16:45:31.705Z,10.68
2022-10-26T16:47:59.374Z,10.62
2022-10-26T16:50:27.030Z,10.55
2022-10-26T16:52:54.725Z,10.48
2022-10-26T16:55:24.656Z,10.43
2022-10-26T16:57:52.687Z,10.37
2022-10-26T17:00:20.700Z,10.32
2022-10-26T17:02:48.340Z,10.26
2022-10-26T17:05:16.070Z,10.19
2022-10-26T17:07:43.794Z,10.14
2022-10-26T17:10:11.643Z,10.10
2022-10-26T17:12:39.371Z,10.04
2022-10-26T17:15:07.386Z,9.99
2022-10-26T17:17:35.160Z,9.96
2022-10-26T17:20:03.214Z,9.92
2022-10-26T17:22:31.096Z,9.87
2022-10-26T17:24:59.188Z,9.84
2022-10-26T17:27:26.966Z,9.80
2022-10-26T17:29:54.874Z,9.75
2022-10-26T17:32:22.911Z,9.72
2022-10-26T17:34:50.632Z,9.69
2022-10-26T17:37:18.388Z,9.66
2022-10-26T17:39:46.107Z,9.64
2022-10-26T17:42:13.817Z,9.61
2022-10-26T17:44:41.894Z,9.58
2022-10-26T17:47:10.472Z,9.53
2022-10-26T17:49:39.033Z,9.49
2022-10-26T17:52:07.046Z,9.44
2022-10-26T17:54:34.814Z,9.43
2022-10-26T17:57:02.558Z,9.42
2022-10-26T17:59:30.232Z,9.41
2022-10-26T18:01:58.105Z,9.39
2022-10-26T18:04:26.360Z,9.37
2022-10-26T18:06:54.801Z,9.35
2022-10-26T18:09:23.379Z,9.32
2022-10-26T18:11:55.085Z,9.30
2022-10-26T18:14:24.272Z,9.28
2022-10-26T18:16:52.807Z,9.26
2022-10-26T18:19:20.795Z,9.23
2022-10-26T18:21:49.168Z,9.21
2022-10-26T18:24:17.009Z,9.18
2022-10-26T18:26:44.715Z,9.18
2022-10-26T18:29:13.593Z,9.19
2022-10-26T18:31:41.371Z,9.18
2022-10-26T18:34:10.987Z,9.18
2022-10-26T18:36:38.767Z,9.18
2022-10-26T18:39:07.369Z,9.19
2022-10-26T18:41:35.051Z,9.20
2022-10-26T18:44:02.843Z,9.20
2022-10-26T18:46:33.809Z,9.18
2022-10-26T18:49:01.521Z,9.17
2022-10-26T18:51:32.321Z,9.17
2022-10-26T18:54:00.879Z,9.16
2022-10-26T18:56:28.755Z,9.11
2022-10-26T18:59:00.827Z,9.07
2022-10-26T19:01:34.631Z,9.03
2022-10-26T19:04:05.795Z,8.99
2022-10-26T19:06:35.263Z,8.95
2022-10-26T19:09:04.418Z,8.92
2022-10-26T19:11:32.689Z,8.89
2022-10-26T19:14:00.559Z,8.86
2022-10-26T19:16:45.116Z,8.83
2022-10-26T19:19:16.534Z,8.80
2022-10-26T19:21:46.330Z,8.77
2022-10-26T19:24:19.767Z,8.75
2022-10-26T19:26:48.854Z,8.74
2022-10-26T19:29:18.375Z,8.74
2022-10-26T19:31:47.242Z,8.73
2022-10-26T19:34:16.007Z,8.73
2022-10-26T19:36:46.254Z,8.74
2022-10-26T19:39:16.301Z,8.74
2022-10-26T19:41:45.627Z,8.74
2022-10-26T19:44:14.743Z,8.73
2022-10-26T19:46:43.729Z,8.71
2022-10-26T19:49:13.054Z,8.69
2022-10-26T19:51:41.036Z,8.67
2022-10-26T19:54:08.872Z,8.67
2022-10-26T19:56:37.748Z,8.65
2022-10-26T19:59:07.211Z,8.65
2022-10-26T20:01:35.139Z,8.64
2022-10-26T20:04:04.368Z,8.61
2022-10-26T20:06:32.096Z,8.57
2022-10-26T20:09:00.158Z,8.56
2022-10-26T20:11:28.580Z,8.54
2022-10-26T20:13:56.609Z,8.54
2022-10-26T20:16:25.067Z,8.52
2022-10-26T20:18:52.799Z,8.48
2022-10-26T20:21:20.515Z,8.44
2022-10-26T20:23:48.212Z,8.43
2022-10-26T20:26:19.419Z,8.45
2022-10-26T20:28:51.101Z,8.44
2022-10-26T20:31:19.926Z,8.42
2022-10-26T20:33:55.344Z,8.41
2022-10-26T20:36:23.179Z,8.40
2022-10-26T20:38:51.691Z,8.40
2022-10-26T20:41:20.042Z,8.39
2022-10-26T20:43:48.322Z,8.39
2022-10-26T20:46:24.385Z,8.39
2022-10-26T20:48:53.754Z,8.40
2022-10-26T20:52:18.965Z,8.40
2022-10-26T20:54:59.131Z,8.41
2022-10-26T20:57:31.034Z,8.40
2022-10-26T21:00:04.820Z,8.37
2022-10-26T21:02:32.814Z,8.34
2022-10-26T21:05:00.749Z,8.27
2022-10-26T21:07:28.496Z,8.19
2022-10-26T21:09:56.141Z,8.12
2022-10-26T21:12:23.896Z,8.07
2022-10-26T21:14:51.570Z,8.00
2022-10-26T21:17:19.405Z,7.97
2022-10-26T21:19:47.099Z,7.95
2022-10-26T21:22:15.845Z,7.93
2022-10-26T21:24:43.504Z,7.89
2022-10-26T21:27:11.167Z,7.86
2022-10-26T21:29:38.836Z,7.84
2022-10-26T21:32:06.572Z,7.84
2022-10-26T21:34:34.313Z,7.85
2022-10-26T21:37:02.098Z,7.85
2022-10-26T21:39:29.768Z,7.87
2022-10-26T21:41:57.433Z,7.89
2022-10-26T21:44:40.465Z,7.89
2022-10-26T21:47:09.494Z,7.92
2022-10-26T21:49:37.641Z,7.97
2022-10-26T21:52:07.045Z,8.01
2022-10-26T21:54:34.809Z,8.06
2022-10-26T21:57:02.508Z,8.10
2022-10-26T21:59:30.230Z,8.12
2022-10-26T22:01:58.080Z,8.15
2022-10-26T22:04:26.003Z,8.17
2022-10-26T22:06:53.815Z,8.19
2022-10-26T22:09:21.496Z,8.20
2022-10-26T22:11:49.233Z,8.22
2022-10-26T22:14:18.230Z,8.24
2022-10-26T22:16:46.044Z,8.25
2022-10-26T22:19:13.936Z,8.27
2022-10-26T22:21:42.195Z,8.28
2022-10-26T22:24:10.101Z,8.26
2022-10-26T22:26:38.058Z,8.26
2022-10-26T22:29:06.097Z,8.23
2022-10-26T22:31:38.295Z,8.20
2022-10-26T22:34:08.826Z,8.20
2022-10-26T22:36:37.555Z,8.19
2022-10-26T22:39:05.658Z,8.20
2022-10-26T22:41:34.365Z,8.19
2022-10-26T22:44:02.649Z,8.18
2022-10-26T22:46:30.700Z,8.17
2022-10-26T22:49:00.990Z,8.17
2022-10-26T22:51:32.682Z,8.15
2022-10-26T22:54:01.982Z,8.13
2022-10-26T22:56:31.097Z,8.13
2022-10-26T22:58:59.010Z,8.13
2022-10-26T23:01:31.380Z,8.14
2022-10-26T23:04:00.350Z,8.14
2022-10-26T23:06:30.550Z,8.14
2022-10-26T23:08:58.728Z,8.13
2022-10-26T23:11:28.545Z,8.12
2022-10-26T23:13:58.895Z,8.11
2022-10-26T23:16:27.745Z,8.10
2022-10-26T23:18:55.673Z,8.09
2022-10-26T23:23:58.059Z,8.12
2022-10-26T23:26:25.912Z,8.14
2022-10-26T23:28:53.875Z,8.14
2022-10-26T23:31:25.685Z,8.14
2022-10-26T23:33:55.544Z,8.13
2022-10-26T23:36:24.023Z,8.13
2022-10-26T23:38:51.775Z,8.14
2022-10-26T23:41:19.528Z,8.13
2022-10-26T23:43:47.244Z,8.12
2022-10-26T23:46:14.931Z,8.09
2022-10-26T23:48:42.777Z,8.08
2022-10-26T23:51:10.424Z,8.06
2022-10-26T23:53:38.321Z,8.04
2022-10-26T23:56:06.455Z,7.99
2022-10-26T23:58:34.137Z,7.98
